Time;durP1;ratioP1;P1;durP2;ratioP2;P2;SDS_P1;SDS_P2;PMS_P1;PMS_P2;Temp;Humidity;BMP_temperature;BMP_pressure;BME280_temperature;BME280_humidity;BME280_pressure;Samples;Min_cycle;Max_cycle;Signal;HPM_P1;HPM_P2
2021/08/15 00:00:01;;;;;;;11.85;4.65;;;;;;;;;;4977812;28;20047;-54
2021/08/15 00:02:29;;;;;;;13.50;4.70;;;;;;;;;;4987165;28;20080;-54
2021/08/15 00:04:55;;;;;;;10.52;4.55;;;;;;;;;;4982909;28;20058;-56
2021/08/15 00:07:23;;;;;;;12.20;4.65;;;;;;;;;;4988189;28;20045;-56
2021/08/15 00:09:50;;;;;;;9.87;4.23;;;;;;;;;;4969033;28;20061;-54
2021/08/15 00:12:16;;;;;;;11.70;4.55;;;;;;;;;;4985911;28;20279;-54
2021/08/15 00:14:43;;;;;;;11.65;4.18;;;;;;;;;;5000062;28;20060;-55
2021/08/15 00:17:10;;;;;;;14.68;4.90;;;;;;;;;;4987025;28;20049;-55
2021/08/15 00:19:36;;;;;;;11.43;4.90;;;;;;;;;;4981597;28;20042;-55
2021/08/15 00:22:03;;;;;;;16.05;4.85;;;;;;;;;;4984859;28;20053;-56
2021/08/15 00:24:32;;;;;;;12.52;4.53;;;;;;;;;;4973216;28;20035;-56
2021/08/15 00:26:59;;;;;;;10.15;4.82;;;;;;;;;;4983128;28;20055;-55
2021/08/15 00:29:25;;;;;;;11.88;5.03;;;;;;;;;;4985951;28;20050;-54
2021/08/15 00:31:52;;;;;;;13.23;5.35;;;;;;;;;;4986361;28;20057;-56
2021/08/15 00:34:18;;;;;;;11.70;5.70;;;;;;;;;;4981593;28;20042;-56
2021/08/15 00:36:45;;;;;;;10.02;5.10;;;;;;;;;;5004091;28;20038;-55
2021/08/15 00:39:11;;;;;;;12.05;6.03;;;;;;;;;;4981322;28;20022;-55
2021/08/15 00:41:39;;;;;;;12.55;4.80;;;;;;;;;;4985799;28;20057;-56
2021/08/15 00:44:07;;;;;;;16.52;4.97;;;;;;;;;;4987326;28;20042;-57
2021/08/15 00:46:33;;;;;;;12.55;4.50;;;;;;;;;;4965090;28;20030;-55
2021/08/15 00:48:59;;;;;;;12.70;4.85;;;;;;;;;;4968947;28;20057;-56
2021/08/15 00:51:27;;;;;;;10.43;4.47;;;;;;;;;;4962234;28;20043;-55
2021/08/15 00:53:55;;;;;;;11.82;4.70;;;;;;;;;;4965418;28;20042;-55
2021/08/15 00:56:22;;;;;;;15.07;5.18;;;;;;;;;;4962798;28;20042;-56
2021/08/15 00:58:50;;;;;;;11.20;4.63;;;;;;;;;;4966425;28;20058;-53
2021/08/15 01:01:17;;;;;;;12.35;4.72;;;;;;;;;;4959823;28;20056;-54
2021/08/15 01:03:44;;;;;;;11.88;4.45;;;;;;;;;;4965685;28;20098;-55
2021/08/15 01:06:11;;;;;;;14.80;4.97;;;;;;;;;;4979842;28;20046;-55
2021/08/15 01:08:38;;;;;;;12.10;4.63;;;;;;;;;;4965097;28;20113;-53
2021/08/15 01:11:05;;;;;;;15.85;5.15;;;;;;;;;;4968777;28;20054;-56
2021/08/15 01:13:31;;;;;;;12.38;4.28;;;;;;;;;;4965248;28;20034;-54
2021/08/15 01:15:59;;;;;;;10.80;4.68;;;;;;;;;;4961677;28;20034;-53
2021/08/15 01:18:28;;;;;;;14.25;4.70;;;;;;;;;;4966998;28;20121;-53
2021/08/15 01:20:58;;;;;;;14.30;4.65;;;;;;;;;;4961893;28;20053;-55
2021/08/15 01:23:25;;;;;;;12.60;4.32;;;;;;;;;;4983526;28;20047;-55
2021/08/15 01:25:51;;;;;;;12.43;4.13;;;;;;;;;;4965914;28;20137;-53
2021/08/15 01:28:20;;;;;;;9.20;4.60;;;;;;;;;;4982988;28;20053;-54
2021/08/15 01:30:46;;;;;;;11.40;4.57;;;;;;;;;;4984583;28;20053;-52
2021/08/15 01:33:23;;;;;;;11.68;4.80;;;;;;;;;;4981723;28;20058;-52
2021/08/15 01:35:51;;;;;;;12.68;4.00;;;;;;;;;;4986334;28;20034;-56
2021/08/15 01:38:17;;;;;;;12.60;4.72;;;;;;;;;;4970000;28;20035;-49
2021/08/15 01:40:44;;;;;;;10.60;3.90;;;;;;;;;;4971005;28;20054;-53
2021/08/15 01:43:11;;;;;;;11.07;4.72;;;;;;;;;;4980079;28;20038;-55
2021/08/15 01:45:41;;;;;;;12.95;4.95;;;;;;;;;;4987726;28;20042;-53
2021/08/15 01:48:08;;;;;;;14.52;5.05;;;;;;;;;;4990592;28;20062;-55
2021/08/15 01:50:34;;;;;;;11.25;5.03;;;;;;;;;;4985534;28;20035;-56
2021/08/15 01:53:01;;;;;;;9.93;4.53;;;;;;;;;;4974965;28;20046;-55
2021/08/15 01:55:28;;;;;;;10.77;4.45;;;;;;;;;;4974503;28;20043;-55
2021/08/15 01:57:57;;;;;;;11.57;4.63;;;;;;;;;;4970403;28;20038;-54
2021/08/15 02:00:23;;;;;;;10.98;4.97;;;;;;;;;;4988160;28;20061;-53
2021/08/15 02:02:52;;;;;;;11.18;4.68;;;;;;;;;;4997909;28;20124;-54
2021/08/15 02:05:19;;;;;;;14.35;4.57;;;;;;;;;;4985589;28;20046;-54
2021/08/15 02:07:46;;;;;;;13.70;4.78;;;;;;;;;;4965763;28;20054;-54
2021/08/15 02:10:13;;;;;;;15.27;6.57;;;;;;;;;;4971605;28;20047;-51
2021/08/15 02:12:40;;;;;;;16.45;7.18;;;;;;;;;;4983433;28;20038;-56
2021/08/15 02:15:07;;;;;;;15.52;6.07;;;;;;;;;;5002659;28;20035;-55
2021/08/15 02:17:33;;;;;;;15.80;5.13;;;;;;;;;;4989338;28;20035;-56
2021/08/15 02:20:01;;;;;;;14.15;4.63;;;;;;;;;;5000673;28;20050;-55
2021/08/15 02:22:28;;;;;;;8.90;4.03;;;;;;;;;;4986244;28;20034;-55
2021/08/15 02:24:54;;;;;;;14.13;4.70;;;;;;;;;;4970345;28;20358;-55
2021/08/15 02:27:21;;;;;;;11.13;4.30;;;;;;;;;;4967492;28;20067;-52
2021/08/15 02:29:50;;;;;;;9.15;3.85;;;;;;;;;;4976494;28;20042;-56
2021/08/15 02:32:17;;;;;;;12.45;4.55;;;;;;;;;;4986390;28;20030;-55
2021/08/15 02:34:44;;;;;;;15.10;3.97;;;;;;;;;;4983104;28;20038;-55
2021/08/15 02:37:11;;;;;;;12.05;4.30;;;;;;;;;;4988245;28;20045;-55
2021/08/15 02:39:38;;;;;;;10.73;3.70;;;;;;;;;;4994663;28;20045;-55
2021/08/15 02:42:05;;;;;;;10.07;3.60;;;;;;;;;;4968318;28;20041;-52
2021/08/15 02:44:31;;;;;;;10.93;3.97;;;;;;;;;;4965084;28;20050;-53
2021/08/15 02:46:57;;;;;;;10.27;4.45;;;;;;;;;;4959716;28;20051;-55
2021/08/15 02:49:24;;;;;;;12.55;4.43;;;;;;;;;;4965455;28;20057;-52
2021/08/15 02:51:50;;;;;;;13.38;4.15;;;;;;;;;;4986767;28;20042;-55
2021/08/15 02:54:18;;;;;;;11.25;4.15;;;;;;;;;;4999587;28;20053;-55
2021/08/15 02:56:45;;;;;;;15.48;4.00;;;;;;;;;;4985799;28;20041;-55
2021/08/15 02:59:11;;;;;;;9.82;3.92;;;;;;;;;;4985496;28;20057;-54
2021/08/15 03:02:14;;;;;;;11.95;3.78;;;;;;;;;;5040249;23;20033;-56
2021/08/15 03:04:41;;;;;;;9.77;3.50;;;;;;;;;;5003675;28;20038;-54
2021/08/15 03:07:07;;;;;;;13.00;4.88;;;;;;;;;;5001013;28;20030;-54
2021/08/15 03:09:36;;;;;;;13.95;4.28;;;;;;;;;;5008780;28;20048;-53
2021/08/15 03:12:12;;;;;;;10.05;4.05;;;;;;;;;;5002568;28;20034;-55
2021/08/15 03:14:39;;;;;;;11.63;3.90;;;;;;;;;;4988126;28;20115;-50
2021/08/15 03:17:06;;;;;;;9.82;3.83;;;;;;;;;;4989614;28;20053;-53
2021/08/15 03:19:32;;;;;;;12.88;4.22;;;;;;;;;;5012324;28;20045;-52
2021/08/15 03:22:00;;;;;;;10.40;3.95;;;;;;;;;;5002911;28;20103;-54
2021/08/15 03:24:26;;;;;;;10.73;4.15;;;;;;;;;;4986820;28;20042;-55
2021/08/15 03:26:54;;;;;;;9.52;4.22;;;;;;;;;;4995089;28;20030;-55
2021/08/15 03:29:20;;;;;;;12.95;4.57;;;;;;;;;;4995422;28;20096;-55
2021/08/15 03:31:47;;;;;;;12.85;3.92;;;;;;;;;;5009369;28;20049;-54
2021/08/15 03:34:14;;;;;;;9.23;3.97;;;;;;;;;;4992444;28;20053;-54
2021/08/15 03:36:40;;;;;;;10.40;3.92;;;;;;;;;;4988658;28;20030;-55
2021/08/15 03:39:07;;;;;;;9.95;3.50;;;;;;;;;;4987147;28;20064;-54
2021/08/15 03:41:34;;;;;;;9.80;4.28;;;;;;;;;;4987493;28;20026;-55
2021/08/15 03:44:02;;;;;;;10.85;3.90;;;;;;;;;;4991211;28;20045;-55
2021/08/15 03:46:28;;;;;;;10.37;4.60;;;;;;;;;;5002831;28;20049;-56
2021/08/15 03:48:54;;;;;;;10.20;4.22;;;;;;;;;;5009933;28;20035;-56
2021/08/15 03:51:24;;;;;;;13.13;4.93;;;;;;;;;;4990546;28;20045;-54
2021/08/15 03:53:50;;;;;;;12.85;4.32;;;;;;;;;;4988760;28;20042;-55
2021/08/15 03:56:17;;;;;;;10.45;4.57;;;;;;;;;;4998707;28;20131;-53
2021/08/15 03:58:43;;;;;;;10.68;4.07;;;;;;;;;;4989289;28;20042;-55
2021/08/15 04:01:11;;;;;;;9.90;3.83;;;;;;;;;;5003891;28;20034;-54
2021/08/15 04:03:38;;;;;;;15.80;4.77;;;;;;;;;;5005173;28;20033;-55
2021/08/15 04:06:08;;;;;;;12.07;4.78;;;;;;;;;;5006669;28;20287;-53
2021/08/15 04:08:36;;;;;;;13.90;4.57;;;;;;;;;;4987717;28;20030;-54
2021/08/15 04:11:04;;;;;;;10.48;4.10;;;;;;;;;;4999437;28;20034;-54
2021/08/15 04:13:31;;;;;;;;;;;;;;;;;;5001087;28;20037;-53
2021/08/15 04:15:57;;;;;;;12.40;4.50;;;;;;;;;;5023423;28;19917;-55
2021/08/15 04:18:25;;;;;;;15.65;5.00;;;;;;;;;;4998612;28;20034;-56
2021/08/15 04:20:51;;;;;;;11.00;4.53;;;;;;;;;;5005531;28;20057;-55
2021/08/15 04:23:18;;;;;;;10.35;4.50;;;;;;;;;;4985100;28;20038;-55
2021/08/15 04:25:45;;;;;;;13.70;4.82;;;;;;;;;;5007022;28;20124;-56
2021/08/15 04:28:12;;;;;;;17.90;5.28;;;;;;;;;;5003717;28;20034;-56
2021/08/15 04:30:38;;;;;;;13.50;5.72;;;;;;;;;;4989446;28;20030;-56
2021/08/15 04:33:05;;;;;;;13.32;4.93;;;;;;;;;;5009988;28;20034;-53
2021/08/15 04:35:33;;;;;;;15.45;5.50;;;;;;;;;;4986945;28;20049;-55
2021/08/15 04:37:59;;;;;;;14.38;5.20;;;;;;;;;;4989030;28;20049;-56
2021/08/15 04:40:26;;;;;;;14.85;5.57;;;;;;;;;;4999422;28;20115;-53
2021/08/15 04:42:53;;;;;;;13.88;5.35;;;;;;;;;;5024612;28;20038;-55
2021/08/15 04:45:20;;;;;;;20.17;5.47;;;;;;;;;;4992037;28;20030;-54
2021/08/15 04:47:46;;;;;;;13.63;5.65;;;;;;;;;;5004513;28;20038;-55
2021/08/15 04:50:12;;;;;;;10.88;5.32;;;;;;;;;;5003186;28;20096;-55
2021/08/15 04:52:40;;;;;;;12.30;6.00;;;;;;;;;;4987451;28;20045;-55
2021/08/15 04:55:08;;;;;;;19.92;5.60;;;;;;;;;;4983570;28;20128;-56
2021/08/15 04:57:34;;;;;;;12.75;5.93;;;;;;;;;;5006910;28;20181;-55
2021/08/15 05:00:00;;;;;;;13.70;5.95;;;;;;;;;;4988987;28;20029;-55
2021/08/15 05:02:27;;;;;;;13.63;6.07;;;;;;;;;;5007995;28;20033;-56
2021/08/15 05:04:54;;;;;;;15.25;5.50;;;;;;;;;;5000566;28;20049;-54
2021/08/15 05:07:20;;;;;;;17.05;6.00;;;;;;;;;;4988631;28;20069;-55
2021/08/15 05:09:48;;;;;;;14.15;5.65;;;;;;;;;;4984002;28;20039;-56
2021/08/15 05:12:15;;;;;;;17.60;6.17;;;;;;;;;;4987171;28;20030;-54
2021/08/15 05:14:41;;;;;;;17.73;6.43;;;;;;;;;;4990891;28;20295;-56
2021/08/15 05:17:08;;;;;;;16.70;6.50;;;;;;;;;;4987866;28;20050;-55
2021/08/15 05:19:34;;;;;;;19.52;6.72;;;;;;;;;;4989188;28;20030;-56
2021/08/15 05:22:04;;;;;;;16.58;5.97;;;;;;;;;;4988900;28;20030;-55
2021/08/15 05:24:31;;;;;;;17.70;5.95;;;;;;;;;;4990434;28;20042;-55
2021/08/15 05:26:59;;;;;;;19.70;6.85;;;;;;;;;;4987842;28;20034;-56
2021/08/15 05:29:26;;;;;;;16.40;6.70;;;;;;;;;;4991776;28;20058;-55
2021/08/15 05:31:54;;;;;;;17.38;6.55;;;;;;;;;;4986905;28;20070;-56
2021/08/15 05:34:20;;;;;;;17.52;6.47;;;;;;;;;;4991198;28;20049;-56
2021/08/15 05:36:47;;;;;;;12.77;6.15;;;;;;;;;;4984239;28;20112;-55
2021/08/15 05:39:13;;;;;;;14.63;6.90;;;;;;;;;;4989299;28;20049;-54
2021/08/15 05:41:42;;;;;;;13.18;6.20;;;;;;;;;;4991247;28;20038;-56
2021/08/15 05:44:10;;;;;;;18.67;6.75;;;;;;;;;;5010075;28;20064;-55
2021/08/15 05:46:36;;;;;;;20.58;7.03;;;;;;;;;;5002206;28;20022;-56
2021/08/15 05:49:03;;;;;;;16.30;6.80;;;;;;;;;;4989843;28;20046;-56
2021/08/15 05:51:29;;;;;;;26.70;7.47;;;;;;;;;;4985665;28;20038;-55
2021/08/15 05:53:56;;;;;;;21.70;7.68;;;;;;;;;;4989430;28;20049;-55
2021/08/15 05:56:22;;;;;;;17.25;7.45;;;;;;;;;;4990699;28;20032;-55
2021/08/15 05:58:48;;;;;;;16.45;7.53;;;;;;;;;;4985253;28;20034;-53
2021/08/15 06:01:23;;;;;;;18.70;7.15;;;;;;;;;;4989704;28;20045;-53
2021/08/15 06:03:50;;;;;;;17.70;7.32;;;;;;;;;;4987174;28;20042;-56
2021/08/15 06:06:16;;;;;;;21.00;8.18;;;;;;;;;;4995520;28;20038;-55
2021/08/15 06:08:43;;;;;;;17.63;8.10;;;;;;;;;;5001956;28;20038;-55
2021/08/15 06:11:15;;;;;;;17.05;7.82;;;;;;;;;;4995970;28;20049;-55
2021/08/15 06:13:41;;;;;;;22.77;9.18;;;;;;;;;;5004274;28;20057;-56
2021/08/15 06:16:08;;;;;;;18.75;8.52;;;;;;;;;;4990575;28;20038;-56
2021/08/15 06:18:36;;;;;;;18.48;8.57;;;;;;;;;;4994493;28;20034;-54
2021/08/15 06:21:02;;;;;;;23.60;9.07;;;;;;;;;;5008860;28;20048;-56
2021/08/15 06:23:29;;;;;;;21.30;9.93;;;;;;;;;;5005515;28;20361;-55
2021/08/15 06:25:57;;;;;;;20.33;9.70;;;;;;;;;;5009808;28;20049;-56
2021/08/15 06:28:23;;;;;;;23.60;8.90;;;;;;;;;;5005323;28;20078;-55
2021/08/15 06:30:50;;;;;;;23.42;8.90;;;;;;;;;;5003556;28;20053;-54
2021/08/15 06:33:16;;;;;;;16.77;8.70;;;;;;;;;;4998609;28;20649;-56
2021/08/15 06:35:44;;;;;;;20.75;8.80;;;;;;;;;;5022295;28;20050;-57
2021/08/15 06:38:10;;;;;;;18.52;9.63;;;;;;;;;;5002264;28;20116;-57
2021/08/15 06:40:37;;;;;;;23.30;9.77;;;;;;;;;;5004835;28;20038;-54
2021/08/15 06:43:08;;;;;;;19.88;9.05;;;;;;;;;;5000465;28;20042;-56
2021/08/15 06:45:34;;;;;;;24.30;9.55;;;;;;;;;;4998170;28;20050;-54
2021/08/15 06:48:01;;;;;;;22.92;10.23;;;;;;;;;;5004966;28;20080;-55
2021/08/15 06:50:27;;;;;;;22.92;8.88;;;;;;;;;;4999997;28;20128;-56
2021/08/15 06:52:56;;;;;;;22.17;10.13;;;;;;;;;;5004357;28;20034;-55
2021/08/15 06:55:23;;;;;;;18.73;8.52;;;;;;;;;;4999686;28;20049;-56
2021/08/15 06:57:49;;;;;;;18.63;9.00;;;;;;;;;;5024545;28;20068;-56
2021/08/15 07:00:16;;;;;;;19.38;9.02;;;;;;;;;;5000177;28;20046;-55
2021/08/15 07:02:47;;;;;;;18.90;8.77;;;;;;;;;;4998024;28;20116;-56
2021/08/15 07:05:14;;;;;;;19.75;8.90;;;;;;;;;;4992244;28;20038;-56
2021/08/15 07:07:40;;;;;;;21.80;8.30;;;;;;;;;;4981450;28;20113;-55
2021/08/15 07:10:09;;;;;;;23.40;9.15;;;;;;;;;;4979266;28;20082;-57
2021/08/15 07:12:43;;;;;;;21.30;9.23;;;;;;;;;;4983776;28;20077;-55
2021/08/15 07:15:10;;;;;;;22.17;10.05;;;;;;;;;;4980049;28;20136;-55
2021/08/15 07:17:39;;;;;;;19.10;8.52;;;;;;;;;;4982694;28;20125;-56
2021/08/15 07:20:06;;;;;;;20.08;8.50;;;;;;;;;;4996519;28;20141;-54
2021/08/15 07:22:39;;;;;;;17.30;8.10;;;;;;;;;;5002774;28;20042;-55
2021/08/15 07:25:06;;;;;;;18.42;7.95;;;;;;;;;;4980504;28;20075;-56
2021/08/15 07:27:34;;;;;;;21.02;7.65;;;;;;;;;;4980511;28;20034;-54
2021/08/15 07:30:01;;;;;;;17.67;7.25;;;;;;;;;;4981717;28;20074;-56
2021/08/15 07:32:33;;;;;;;19.92;7.63;;;;;;;;;;4978936;28;20050;-56
2021/08/15 07:35:00;;;;;;;21.20;7.50;;;;;;;;;;4983894;28;20034;-54
2021/08/15 07:37:27;;;;;;;21.88;7.78;;;;;;;;;;4980982;28;20046;-53
2021/08/15 07:39:54;;;;;;;15.40;6.97;;;;;;;;;;4989278;28;20046;-57
2021/08/15 07:42:21;;;;;;;17.38;7.40;;;;;;;;;;4980805;28;20116;-53
2021/08/15 07:44:49;;;;;;;16.13;7.43;;;;;;;;;;4984973;28;20043;-54
2021/08/15 07:47:16;;;;;;;19.33;7.95;;;;;;;;;;4979040;28;20038;-56
2021/08/15 07:49:42;;;;;;;18.70;7.15;;;;;;;;;;4980591;28;20046;-55
2021/08/15 07:52:14;;;;;;;15.20;6.70;;;;;;;;;;4978530;28;20145;-56
2021/08/15 07:54:41;;;;;;;15.35;6.80;;;;;;;;;;4978928;28;20038;-55
2021/08/15 07:57:07;;;;;;;14.43;6.05;;;;;;;;;;4977003;28;20038;-54
2021/08/15 07:59:34;;;;;;;21.75;6.38;;;;;;;;;;5001662;28;20045;-56
2021/08/15 08:02:02;;;;;;;13.75;6.05;;;;;;;;;;4981657;28;20041;-57
2021/08/15 08:04:28;;;;;;;16.00;5.78;;;;;;;;;;4985102;28;20047;-56
2021/08/15 08:07:02;;;;;;;15.07;5.75;;;;;;;;;;4981513;28;20050;-56
2021/08/15 08:09:28;;;;;;;18.33;6.35;;;;;;;;;;4984360;28;20035;-56
2021/08/15 08:11:55;;;;;;;16.95;6.07;;;;;;;;;;4999550;28;20034;-57
2021/08/15 08:14:22;;;;;;;20.17;6.05;;;;;;;;;;5006718;28;20042;-57
2021/08/15 08:16:48;;;;;;;15.82;6.38;;;;;;;;;;4984609;28;20034;-55
2021/08/15 08:19:16;;;;;;;15.88;5.78;;;;;;;;;;4981998;28;20043;-57
2021/08/15 08:21:47;;;;;;;16.60;6.38;;;;;;;;;;5001142;28;20124;-56
2021/08/15 08:24:13;;;;;;;16.00;5.75;;;;;;;;;;4982492;28;20046;-57
2021/08/15 08:26:40;;;;;;;14.15;5.95;;;;;;;;;;4982838;28;20161;-57
2021/08/15 08:29:06;;;;;;;16.77;6.35;;;;;;;;;;4980866;28;20038;-55
2021/08/15 08:31:33;;;;;;;16.38;5.45;;;;;;;;;;4984286;28;20039;-57
2021/08/15 08:33:59;;;;;;;14.85;6.00;;;;;;;;;;4979920;28;20043;-56
2021/08/15 08:36:27;;;;;;;14.48;4.93;;;;;;;;;;4984193;28;20048;-55
2021/08/15 08:38:54;;;;;;;13.48;4.43;;;;;;;;;;4981449;28;20042;-56
2021/08/15 08:41:20;;;;;;;12.02;4.00;;;;;;;;;;4983565;28;20096;-57
2021/08/15 08:43:47;;;;;;;18.70;4.82;;;;;;;;;;4987198;28;20026;-57
2021/08/15 08:46:14;;;;;;;12.88;4.20;;;;;;;;;;5002612;28;20165;-56
2021/08/15 08:48:41;;;;;;;15.45;4.70;;;;;;;;;;4996390;28;20062;-57
2021/08/15 08:51:07;;;;;;;21.13;4.68;;;;;;;;;;4985366;28;20050;-56
2021/08/15 08:53:35;;;;;;;15.25;4.78;;;;;;;;;;4981794;28;20039;-56
2021/08/15 08:56:03;;;;;;;16.30;4.75;;;;;;;;;;4985083;28;20030;-56
2021/08/15 08:58:30;;;;;;;11.00;4.07;;;;;;;;;;4985316;28;20039;-55
2021/08/15 09:00:56;;;;;;;12.73;4.20;;;;;;;;;;4985000;28;20066;-57
2021/08/15 09:03:23;;;;;;;13.63;4.43;;;;;;;;;;5001619;28;20042;-57
2021/08/15 09:05:53;;;;;;;17.58;4.43;;;;;;;;;;5000236;28;20066;-57
2021/08/15 09:08:27;;;;;;;19.05;5.10;;;;;;;;;;5004509;28;20086;-57
2021/08/15 09:11:09;;;;;;;14.20;4.10;;;;;;;;;;4985256;28;20047;-57
2021/08/15 09:13:36;;;;;;;15.98;6.85;;;;;;;;;;4987499;28;20046;-57
2021/08/15 09:16:03;;;;;;;16.15;5.00;;;;;;;;;;4993693;28;20042;-59
2021/08/15 09:18:29;;;;;;;13.27;4.35;;;;;;;;;;5003858;28;20037;-57
2021/08/15 09:20:56;;;;;;;12.60;4.07;;;;;;;;;;4998415;28;20108;-57
2021/08/15 09:23:23;;;;;;;14.48;4.60;;;;;;;;;;5002800;28;20070;-57
2021/08/15 09:26:05;;;;;;;13.23;3.58;;;;;;;;;;4990997;28;20034;-56
2021/08/15 09:28:35;;;;;;;13.07;3.75;;;;;;;;;;4982071;28;20030;-55
2021/08/15 09:31:13;;;;;;;14.90;4.20;;;;;;;;;;4980927;28;20047;-57
2021/08/15 09:33:39;;;;;;;;;;;;;;;;;;4981541;28;20031;-57
2021/08/15 09:36:09;;;;;;;16.15;4.45;;;;;;;;;;4979844;28;19922;-56
2021/08/15 09:38:42;;;;;;;12.50;4.18;;;;;;;;;;4983255;28;20042;-57
2021/08/15 09:41:22;;;;;;;13.95;4.35;;;;;;;;;;4979203;28;20041;-57
2021/08/15 09:43:52;;;;;;;12.02;4.07;;;;;;;;;;4982397;28;20053;-57
2021/08/15 09:46:19;;;;;;;11.15;3.05;;;;;;;;;;4980088;28;20031;-56
2021/08/15 09:48:45;;;;;;;13.73;3.78;;;;;;;;;;4983166;28;20050;-57
2021/08/15 09:51:14;;;;;;;14.68;4.78;;;;;;;;;;4980614;28;20113;-57
2021/08/15 09:53:42;;;;;;;10.02;4.00;;;;;;;;;;4983689;28;20090;-57
2021/08/15 09:56:08;;;;;;;12.32;4.10;;;;;;;;;;4978480;28;20094;-57
2021/08/15 09:58:35;;;;;;;11.85;3.78;;;;;;;;;;4985413;28;20041;-58
2021/08/15 10:01:05;;;;;;;11.23;3.08;;;;;;;;;;4985323;28;20067;-57
2021/08/15 10:03:32;;;;;;;13.27;3.72;;;;;;;;;;4985789;28;20054;-57
2021/08/15 10:05:59;;;;;;;9.93;3.55;;;;;;;;;;4985581;28;20030;-57
2021/08/15 10:08:25;;;;;;;10.43;3.33;;;;;;;;;;4983743;28;20039;-58
2021/08/15 10:10:52;;;;;;;9.30;3.00;;;;;;;;;;4997089;28;20042;-58
2021/08/15 10:13:19;;;;;;;10.50;3.00;;;;;;;;;;4986515;28;20039;-58
2021/08/15 10:15:54;;;;;;;11.73;3.17;;;;;;;;;;4986906;28;20045;-57
2021/08/15 10:18:24;;;;;;;11.32;3.03;;;;;;;;;;4982503;28;20039;-57
2021/08/15 10:20:59;;;;;;;13.93;3.42;;;;;;;;;;4985786;28;20035;-57
2021/08/15 10:23:35;;;;;;;9.32;2.70;;;;;;;;;;4982060;28;20049;-56
2021/08/15 10:26:01;;;;;;;6.05;2.28;;;;;;;;;;4986486;28;20116;-57
2021/08/15 10:28:45;;;;;;;10.23;3.38;;;;;;;;;;4983238;28;20054;-58
2021/08/15 10:31:12;;;;;;;7.70;2.70;;;;;;;;;;4987099;28;20038;-58
2021/08/15 10:33:51;;;;;;;12.00;2.50;;;;;;;;;;4992487;28;20045;-58
2021/08/15 10:36:24;;;;;;;8.68;2.70;;;;;;;;;;5006654;28;20038;-58
2021/08/15 10:38:51;;;;;;;6.40;2.33;;;;;;;;;;4974213;28;20038;-56
2021/08/15 10:41:37;;;;;;;7.10;2.55;;;;;;;;;;4984103;28;20053;-58
2021/08/15 10:44:05;;;;;;;8.40;2.30;;;;;;;;;;4980652;28;20078;-58
2021/08/15 10:46:35;;;;;;;7.85;2.47;;;;;;;;;;4979478;28;20034;-58
2021/08/15 10:49:04;;;;;;;5.63;2.22;;;;;;;;;;4982549;28;20059;-63
2021/08/15 10:51:31;;;;;;;;;;;;;;;;;;4993829;28;20047;-62
2021/08/15 10:53:57;;;;;;;8.35;2.75;;;;;;;;;;4985729;28;19921;-58
2021/08/15 10:56:44;;;;;;;9.45;3.17;;;;;;;;;;5007155;28;20066;-58
2021/08/15 10:59:25;;;;;;;7.00;2.20;;;;;;;;;;4999991;28;20034;-58
2021/08/15 11:02:12;;;;;;;10.55;3.33;;;;;;;;;;5005774;28;20038;-58
2021/08/15 11:04:39;;;;;;;7.72;3.00;;;;;;;;;;4999783;28;20042;-58
2021/08/15 11:07:05;;;;;;;9.10;3.88;;;;;;;;;;5006145;28;20112;-58
2021/08/15 11:09:50;;;;;;;7.00;2.58;;;;;;;;;;4994054;28;20043;-58
2021/08/15 11:12:18;;;;;;;7.43;2.30;;;;;;;;;;4997481;28;20054;-58
2021/08/15 11:15:05;;;;;;;5.13;1.92;;;;;;;;;;4995502;28;20062;-58
2021/08/15 11:17:34;;;;;;;7.90;2.25;;;;;;;;;;4984596;28;20042;-58
2021/08/15 11:20:19;;;;;;;7.68;2.22;;;;;;;;;;4981983;28;20108;-59
2021/08/15 11:23:04;;;;;;;7.85;1.90;;;;;;;;;;4991275;28;20054;-58
2021/08/15 11:25:31;;;;;;;5.22;1.95;;;;;;;;;;4995810;28;20045;-58
2021/08/15 11:27:58;;;;;;;8.43;2.20;;;;;;;;;;5005805;28;20038;-58
2021/08/15 11:30:24;;;;;;;6.28;2.05;;;;;;;;;;4982242;28;20067;-57
2021/08/15 11:32:53;;;;;;;6.88;2.50;;;;;;;;;;5002941;28;20100;-59
2021/08/15 11:35:20;;;;;;;8.73;2.30;;;;;;;;;;4997746;28;20040;-58
2021/08/15 11:37:48;;;;;;;4.88;1.80;;;;;;;;;;5002116;28;20047;-58
2021/08/15 11:40:16;;;;;;;7.35;1.60;;;;;;;;;;4984112;28;20042;-59
2021/08/15 11:42:44;;;;;;;4.40;1.60;;;;;;;;;;5005498;28;20034;-58
2021/08/15 11:45:11;;;;;;;4.93;1.50;;;;;;;;;;5000649;28;20038;-58
2021/08/15 11:47:38;;;;;;;4.95;1.40;;;;;;;;;;4985202;28;20129;-58
2021/08/15 11:50:15;;;;;;;3.47;1.30;;;;;;;;;;4985853;28;20038;-58
2021/08/15 11:52:42;;;;;;;5.20;1.30;;;;;;;;;;4982362;28;20055;-58
2021/08/15 11:55:18;;;;;;;5.55;1.50;;;;;;;;;;4996790;28;20046;-58
2021/08/15 11:57:46;;;;;;;4.00;1.48;;;;;;;;;;4984196;28;20055;-58
2021/08/15 12:00:13;;;;;;;2.40;1.20;;;;;;;;;;4985462;28;20039;-59
2021/08/15 12:02:40;;;;;;;2.85;1.00;;;;;;;;;;4983082;28;20049;-58
2021/08/15 12:05:07;;;;;;;4.00;1.10;;;;;;;;;;4984981;28;20062;-58
2021/08/15 12:07:35;;;;;;;3.00;1.20;;;;;;;;;;4980768;28;20038;-58
2021/08/15 12:10:01;;;;;;;;;;;;;;;;;;4990052;28;20058;-59
2021/08/15 12:12:31;;;;;;;5.78;1.20;;;;;;;;;;4987788;28;19977;-58
2021/08/15 12:15:05;;;;;;;6.47;1.60;;;;;;;;;;4986401;28;20042;-58
2021/08/15 12:17:46;;;;;;;7.28;2.70;;;;;;;;;;4981040;28;20050;-58
2021/08/15 12:20:19;;;;;;;6.32;1.70;;;;;;;;;;4985582;28;20042;-58
2021/08/15 12:22:53;;;;;;;5.70;2.15;;;;;;;;;;4980423;28;20026;-59
2021/08/15 12:25:20;;;;;;;5.15;1.70;;;;;;;;;;4983053;28;20046;-59
2021/08/15 12:27:47;;;;;;;6.37;1.50;;;;;;;;;;4991413;28;20045;-59
2021/08/15 12:30:26;;;;;;;4.28;1.35;;;;;;;;;;5009170;28;20411;-58
2021/08/15 12:33:02;;;;;;;5.05;1.15;;;;;;;;;;4991763;28;20117;-59
2021/08/15 12:35:28;;;;;;;4.40;1.70;;;;;;;;;;4976288;28;20035;-58
2021/08/15 12:37:56;;;;;;;6.35;1.52;;;;;;;;;;4980081;28;20148;-58
2021/08/15 12:40:28;;;;;;;6.60;1.30;;;;;;;;;;4984690;28;20046;-59
2021/08/15 12:42:57;;;;;;;3.63;1.20;;;;;;;;;;4986962;28;20038;-58
2021/08/15 12:45:30;;;;;;;4.38;1.20;;;;;;;;;;5002573;28;20053;-58
2021/08/15 12:48:00;;;;;;;2.58;0.90;;;;;;;;;;4999144;28;20042;-58
2021/08/15 12:50:26;;;;;;;2.67;0.95;;;;;;;;;;4983616;28;20035;-57
2021/08/15 12:52:57;;;;;;;2.95;1.15;;;;;;;;;;4981876;28;20109;-58
2021/08/15 12:55:24;;;;;;;3.97;0.95;;;;;;;;;;4990244;28;20100;-58
2021/08/15 12:57:53;;;;;;;3.53;1.00;;;;;;;;;;5003002;28;20038;-58
2021/08/15 13:00:19;;;;;;;2.30;0.80;;;;;;;;;;4980440;28;20045;-58
2021/08/15 13:02:46;;;;;;;3.25;0.70;;;;;;;;;;4984371;28;20039;-58
2021/08/15 13:05:13;;;;;;;2.20;0.80;;;;;;;;;;4979965;28;20054;-58
2021/08/15 13:07:40;;;;;;;2.35;0.88;;;;;;;;;;4967610;28;20113;-58
2021/08/15 13:10:09;;;;;;;2.92;1.13;;;;;;;;;;4991031;28;20046;-59
2021/08/15 13:12:35;;;;;;;1.90;0.90;;;;;;;;;;4969170;28;20074;-58
2021/08/15 13:15:02;;;;;;;2.25;1.00;;;;;;;;;;4981447;28;20062;-58
2021/08/15 13:17:29;;;;;;;3.95;1.63;;;;;;;;;;5005218;28;20038;-59
2021/08/15 13:19:55;;;;;;;5.50;1.48;;;;;;;;;;4982620;28;20034;-58
2021/08/15 13:22:23;;;;;;;3.97;1.30;;;;;;;;;;4988182;28;20070;-59
2021/08/15 13:24:50;;;;;;;5.40;1.60;;;;;;;;;;4995189;28;20042;-59
2021/08/15 13:27:19;;;;;;;4.53;1.30;;;;;;;;;;4983922;28;20038;-59
2021/08/15 13:29:45;;;;;;;4.03;1.23;;;;;;;;;;4964063;28;20055;-58
2021/08/15 13:32:15;;;;;;;4.57;1.30;;;;;;;;;;4965984;28;20042;-58
2021/08/15 13:34:43;;;;;;;2.90;1.08;;;;;;;;;;4969612;28;20050;-58
2021/08/15 13:37:13;;;;;;;3.30;1.40;;;;;;;;;;5007578;28;20035;-59
2021/08/15 13:39:40;;;;;;;3.72;1.33;;;;;;;;;;4987014;28;20027;-59
2021/08/15 13:42:08;;;;;;;6.00;2.03;;;;;;;;;;4969033;28;20102;-58
2021/08/15 13:44:36;;;;;;;6.22;1.42;;;;;;;;;;4970106;28;20034;-58
2021/08/15 13:47:04;;;;;;;11.10;1.65;;;;;;;;;;4985144;28;20034;-58
2021/08/15 13:49:30;;;;;;;;;;;;;;;;;;4971267;28;20124;-58
2021/08/15 13:52:03;;;;;;;4.95;1.75;;;;;;;;;;4980563;28;19917;-58
2021/08/15 13:54:30;;;;;;;4.93;1.40;;;;;;;;;;4984051;28;20096;-59
2021/08/15 13:56:56;;;;;;;5.43;1.80;;;;;;;;;;4966868;28;20039;-58
2021/08/15 13:59:23;;;;;;;7.38;1.70;;;;;;;;;;4971273;28;20039;-58
2021/08/15 14:01:56;;;;;;;5.70;1.83;;;;;;;;;;4993556;28;20049;-59
2021/08/15 14:04:24;;;;;;;3.92;1.83;;;;;;;;;;4997183;28;20048;-58
2021/08/15 14:06:51;;;;;;;6.50;2.05;;;;;;;;;;4999038;28;20039;-60
2021/08/15 14:09:17;;;;;;;4.65;1.80;;;;;;;;;;4987319;28;20042;-59
2021/08/15 14:11:49;;;;;;;8.63;2.47;;;;;;;;;;4991659;28;20050;-58
2021/08/15 14:14:16;;;;;;;5.68;2.22;;;;;;;;;;4985418;28;20170;-59
2021/08/15 14:16:42;;;;;;;9.52;3.00;;;;;;;;;;4984082;28;20049;-59
2021/08/15 14:19:09;;;;;;;13.27;4.68;;;;;;;;;;4986057;28;20074;-59
2021/08/15 14:21:37;;;;;;;9.65;2.30;;;;;;;;;;4986400;28;20043;-59
2021/08/15 14:24:03;;;;;;;4.90;1.67;;;;;;;;;;5005805;28;20049;-59
2021/08/15 14:26:30;;;;;;;10.82;1.95;;;;;;;;;;5000313;28;20038;-59
2021/08/15 14:28:56;;;;;;;11.73;2.97;;;;;;;;;;5006989;28;20121;-59
2021/08/15 14:31:24;;;;;;;6.95;2.20;;;;;;;;;;5005506;28;20038;-59
2021/08/15 14:33:51;;;;;;;4.78;2.10;;;;;;;;;;4984278;28;20043;-59
2021/08/15 14:36:18;;;;;;;12.15;2.75;;;;;;;;;;4986263;28;20039;-59
2021/08/15 14:38:46;;;;;;;6.88;2.17;;;;;;;;;;4983965;28;20038;-59
2021/08/15 14:41:13;;;;;;;11.20;2.17;;;;;;;;;;4986461;28;20038;-59